sensor_id;sensor_type;location;lat;lon;timestamp;temperature;humidity
44047;DHT22;29713;-33.888;151.150;2023-06-26T00:02:05;16.60;99.90
44047;DHT22;29713;-33.888;151.150;2023-06-26T00:04:33;16.70;99.60
44047;DHT22;29713;-33.888;151.150;2023-06-26T00:07:02;16.90;99.30
44047;DHT22;29713;-33.888;151.150;2023-06-26T00:09:29;16.90;98.90
44047;DHT22;29713;-33.888;151.150;2023-06-26T00:11:57;17.10;99.00
44047;DHT22;29713;-33.888;151.150;2023-06-26T00:14:26;17.10;98.50
44047;DHT22;29713;-33.888;151.150;2023-06-26T00:16:53;17.30;97.20
44047;DHT22;29713;-33.888;151.150;2023-06-26T00:19:20;17.40;97.40
44047;DHT22;29713;-33.888;151.150;2023-06-26T00:21:51;17.40;97.00
44047;DHT22;29713;-33.888;151.150;2023-06-26T00:24:18;17.50;97.10
44047;DHT22;29713;-33.888;151.150;2023-06-26T00:26:49;17.60;96.80
44047;DHT22;29713;-33.888;151.150;2023-06-26T00:29:16;17.60;96.60
44047;DHT22;29713;-33.888;151.150;2023-06-26T00:31:44;17.70;96.10
44047;DHT22;29713;-33.888;151.150;2023-06-26T00:34:11;17.70;95.70
44047;DHT22;29713;-33.888;151.150;2023-06-26T00:36:38;17.80;95.80
44047;DHT22;29713;-33.888;151.150;2023-06-26T00:39:10;17.80;96.10
44047;DHT22;29713;-33.888;151.150;2023-06-26T00:41:38;17.90;95.30
44047;DHT22;29713;-33.888;151.150;2023-06-26T00:44:06;18.00;95.00
44047;DHT22;29713;-33.888;151.150;2023-06-26T00:46:35;18.10;95.20
44047;DHT22;29713;-33.888;151.150;2023-06-26T00:49:03;18.20;95.10
44047;DHT22;29713;-33.888;151.150;2023-06-26T00:51:31;18.30;94.10
44047;DHT22;29713;-33.888;151.150;2023-06-26T00:53:59;18.40;93.90
44047;DHT22;29713;-33.888;151.150;2023-06-26T00:56:27;18.40;93.40
44047;DHT22;29713;-33.888;151.150;2023-06-26T00:58:54;18.40;93.00
44047;DHT22;29713;-33.888;151.150;2023-06-26T01:01:22;18.50;92.90
44047;DHT22;29713;-33.888;151.150;2023-06-26T01:03:53;18.50;92.80
44047;DHT22;29713;-33.888;151.150;2023-06-26T01:06:24;18.50;92.70
44047;DHT22;29713;-33.888;151.150;2023-06-26T01:08:55;18.60;92.50
44047;DHT22;29713;-33.888;151.150;2023-06-26T01:11:23;18.70;92.70
44047;DHT22;29713;-33.888;151.150;2023-06-26T01:13:51;18.80;92.10
44047;DHT22;29713;-33.888;151.150;2023-06-26T01:16:26;18.90;92.20
44047;DHT22;29713;-33.888;151.150;2023-06-26T01:18:55;19.00;91.10
44047;DHT22;29713;-33.888;151.150;2023-06-26T01:21:23;19.20;91.20
44047;DHT22;29713;-33.888;151.150;2023-06-26T01:24:19;19.30;91.40
44047;DHT22;29713;-33.888;151.150;2023-06-26T01:26:50;19.40;91.10
44047;DHT22;29713;-33.888;151.150;2023-06-26T01:29:19;19.40;91.00
44047;DHT22;29713;-33.888;151.150;2023-06-26T01:31:48;19.50;91.00
44047;DHT22;29713;-33.888;151.150;2023-06-26T01:34:17;19.60;90.10
44047;DHT22;29713;-33.888;151.150;2023-06-26T01:36:46;19.80;90.50
44047;DHT22;29713;-33.888;151.150;2023-06-26T01:39:17;19.90;90.30
44047;DHT22;29713;-33.888;151.150;2023-06-26T01:41:45;20.00;89.90
44047;DHT22;29713;-33.888;151.150;2023-06-26T01:44:29;20.00;89.90
44047;DHT22;29713;-33.888;151.150;2023-06-26T01:47:02;20.30;89.70
44047;DHT22;29713;-33.888;151.150;2023-06-26T01:52:39;20.40;87.40
44047;DHT22;29713;-33.888;151.150;2023-06-26T01:55:28;20.50;87.60
44047;DHT22;29713;-33.888;151.150;2023-06-26T01:58:02;20.50;85.50
44047;DHT22;29713;-33.888;151.150;2023-06-26T02:00:30;20.70;86.90
44047;DHT22;29713;-33.888;151.150;2023-06-26T02:02:58;20.80;85.40
44047;DHT22;29713;-33.888;151.150;2023-06-26T02:05:25;20.90;85.20
44047;DHT22;29713;-33.888;151.150;2023-06-26T02:07:53;20.90;83.70
44047;DHT22;29713;-33.888;151.150;2023-06-26T02:10:23;21.00;83.30
44047;DHT22;29713;-33.888;151.150;2023-06-26T02:12:51;20.90;82.60
44047;DHT22;29713;-33.888;151.150;2023-06-26T02:15:18;20.90;82.50
44047;DHT22;29713;-33.888;151.150;2023-06-26T02:17:45;21.00;82.90
44047;DHT22;29713;-33.888;151.150;2023-06-26T02:20:16;21.10;81.90
44047;DHT22;29713;-33.888;151.150;2023-06-26T02:22:43;21.10;82.00
44047;DHT22;29713;-33.888;151.150;2023-06-26T02:25:11;21.10;81.40
44047;DHT22;29713;-33.888;151.150;2023-06-26T02:27:39;21.20;81.60
44047;DHT22;29713;-33.888;151.150;2023-06-26T02:30:07;21.30;80.90
44047;DHT22;29713;-33.888;151.150;2023-06-26T02:32:35;21.30;79.20
44047;DHT22;29713;-33.888;151.150;2023-06-26T02:35:02;21.30;79.70
44047;DHT22;29713;-33.888;151.150;2023-06-26T02:37:30;21.10;79.80
44047;DHT22;29713;-33.888;151.150;2023-06-26T02:39:57;21.10;80.60
44047;DHT22;29713;-33.888;151.150;2023-06-26T02:42:25;21.20;81.30
44047;DHT22;29713;-33.888;151.150;2023-06-26T02:44:52;21.20;80.30
44047;DHT22;29713;-33.888;151.150;2023-06-26T02:47:19;21.30;81.20
44047;DHT22;29713;-33.888;151.150;2023-06-26T02:49:47;21.20;79.40
44047;DHT22;29713;-33.888;151.150;2023-06-26T02:52:14;21.20;78.90
44047;DHT22;29713;-33.888;151.150;2023-06-26T02:54:41;21.30;79.60
44047;DHT22;29713;-33.888;151.150;2023-06-26T02:57:09;21.40;78.30
44047;DHT22;29713;-33.888;151.150;2023-06-26T02:59:36;21.50;79.10
44047;DHT22;29713;-33.888;151.150;2023-06-26T03:02:06;21.60;78.80
44047;DHT22;29713;-33.888;151.150;2023-06-26T03:04:33;21.60;79.40
44047;DHT22;29713;-33.888;151.150;2023-06-26T03:07:03;21.80;78.20
44047;DHT22;29713;-33.888;151.150;2023-06-26T03:09:31;21.90;80.70
44047;DHT22;29713;-33.888;151.150;2023-06-26T03:11:58;21.70;77.40
44047;DHT22;29713;-33.888;151.150;2023-06-26T03:14:26;21.60;77.50
44047;DHT22;29713;-33.888;151.150;2023-06-26T03:16:53;21.40;76.60
44047;DHT22;29713;-33.888;151.150;2023-06-26T03:19:24;21.40;78.00
44047;DHT22;29713;-33.888;151.150;2023-06-26T03:21:52;21.50;77.10
44047;DHT22;29713;-33.888;151.150;2023-06-26T03:24:19;21.40;77.10
44047;DHT22;29713;-33.888;151.150;2023-06-26T03:26:46;21.50;77.90
44047;DHT22;29713;-33.888;151.150;2023-06-26T03:29:14;21.60;77.30
44047;DHT22;29713;-33.888;151.150;2023-06-26T03:31:41;21.40;77.10
44047;DHT22;29713;-33.888;151.150;2023-06-26T03:34:08;21.50;77.20
44047;DHT22;29713;-33.888;151.150;2023-06-26T03:36:36;21.50;78.70
44047;DHT22;29713;-33.888;151.150;2023-06-26T03:39:03;21.60;77.00
44047;DHT22;29713;-33.888;151.150;2023-06-26T03:41:30;21.60;76.10
44047;DHT22;29713;-33.888;151.150;2023-06-26T03:43:58;21.40;75.80
44047;DHT22;29713;-33.888;151.150;2023-06-26T03:46:27;21.30;74.40
44047;DHT22;29713;-33.888;151.150;2023-06-26T03:48:54;21.10;74.60
44047;DHT22;29713;-33.888;151.150;2023-06-26T03:51:21;21.00;75.30
44047;DHT22;29713;-33.888;151.150;2023-06-26T03:53:49;20.80;75.60
44047;DHT22;29713;-33.888;151.150;2023-06-26T03:56:16;20.70;75.40
44047;DHT22;29713;-33.888;151.150;2023-06-26T03:58:43;20.70;76.10
44047;DHT22;29713;-33.888;151.150;2023-06-26T04:01:11;20.80;75.20
44047;DHT22;29713;-33.888;151.150;2023-06-26T04:03:38;20.90;76.30
44047;DHT22;29713;-33.888;151.150;2023-06-26T04:06:06;20.90;76.00
44047;DHT22;29713;-33.888;151.150;2023-06-26T04:08:33;20.70;75.50
44047;DHT22;29713;-33.888;151.150;2023-06-26T04:11:00;20.80;75.50
44047;DHT22;29713;-33.888;151.150;2023-06-26T04:13:28;20.80;76.00
44047;DHT22;29713;-33.888;151.150;2023-06-26T04:15:55;20.70;75.70
44047;DHT22;29713;-33.888;151.150;2023-06-26T04:18:22;20.70;76.20
44047;DHT22;29713;-33.888;151.150;2023-06-26T04:21:12;20.60;75.90
44047;DHT22;29713;-33.888;151.150;2023-06-26T04:23:41;20.40;76.50
44047;DHT22;29713;-33.888;151.150;2023-06-26T04:26:08;20.40;76.40
44047;DHT22;29713;-33.888;151.150;2023-06-26T04:28:36;20.30;77.20
44047;DHT22;29713;-33.888;151.150;2023-06-26T04:31:03;20.30;77.80
44047;DHT22;29713;-33.888;151.150;2023-06-26T04:33:31;20.30;78.40
44047;DHT22;29713;-33.888;151.150;2023-06-26T04:35:58;20.20;78.50
44047;DHT22;29713;-33.888;151.150;2023-06-26T04:38:26;20.20;77.60
44047;DHT22;29713;-33.888;151.150;2023-06-26T04:40:53;20.00;77.00
44047;DHT22;29713;-33.888;151.150;2023-06-26T04:43:21;19.90;78.00
44047;DHT22;29713;-33.888;151.150;2023-06-26T04:45:48;19.80;77.90
44047;DHT22;29713;-33.888;151.150;2023-06-26T04:48:15;19.60;78.00
44047;DHT22;29713;-33.888;151.150;2023-06-26T04:50:43;19.40;79.30
44047;DHT22;29713;-33.888;151.150;2023-06-26T04:53:12;19.30;78.20
44047;DHT22;29713;-33.888;151.150;2023-06-26T04:55:39;19.30;78.70
44047;DHT22;29713;-33.888;151.150;2023-06-26T04:58:07;19.20;80.70
44047;DHT22;29713;-33.888;151.150;2023-06-26T05:00:34;19.10;78.90
44047;DHT22;29713;-33.888;151.150;2023-06-26T05:03:02;19.00;79.80
44047;DHT22;29713;-33.888;151.150;2023-06-26T05:05:30;18.90;79.40
44047;DHT22;29713;-33.888;151.150;2023-06-26T05:07:57;18.80;80.60
44047;DHT22;29713;-33.888;151.150;2023-06-26T05:10:24;18.80;81.50
44047;DHT22;29713;-33.888;151.150;2023-06-26T05:12:52;18.80;81.00
44047;DHT22;29713;-33.888;151.150;2023-06-26T05:15:19;18.70;81.50
44047;DHT22;29713;-33.888;151.150;2023-06-26T05:17:46;18.70;81.00
44047;DHT22;29713;-33.888;151.150;2023-06-26T05:20:14;18.70;81.30
44047;DHT22;29713;-33.888;151.150;2023-06-26T05:22:42;18.50;80.60
44047;DHT22;29713;-33.888;151.150;2023-06-26T05:25:10;18.50;79.60
44047;DHT22;29713;-33.888;151.150;2023-06-26T05:27:38;18.40;79.50
44047;DHT22;29713;-33.888;151.150;2023-06-26T05:30:05;18.30;79.80
44047;DHT22;29713;-33.888;151.150;2023-06-26T05:32:35;18.20;80.40
44047;DHT22;29713;-33.888;151.150;2023-06-26T05:35:03;18.10;82.00
44047;DHT22;29713;-33.888;151.150;2023-06-26T05:37:32;18.10;82.40
44047;DHT22;29713;-33.888;151.150;2023-06-26T05:40:01;18.00;83.50
44047;DHT22;29713;-33.888;151.150;2023-06-26T05:42:30;18.00;82.90
44047;DHT22;29713;-33.888;151.150;2023-06-26T05:44:58;17.90;84.60
44047;DHT22;29713;-33.888;151.150;2023-06-26T05:47:25;17.90;86.30
44047;DHT22;29713;-33.888;151.150;2023-06-26T05:49:52;17.80;84.80
44047;DHT22;29713;-33.888;151.150;2023-06-26T05:52:20;17.80;85.50
44047;DHT22;29713;-33.888;151.150;2023-06-26T05:54:48;17.70;85.70
44047;DHT22;29713;-33.888;151.150;2023-06-26T05:57:16;17.60;85.50
44047;DHT22;29713;-33.888;151.150;2023-06-26T05:59:44;17.50;84.70
44047;DHT22;29713;-33.888;151.150;2023-06-26T06:02:12;17.50;85.90
44047;DHT22;29713;-33.888;151.150;2023-06-26T06:04:39;17.50;85.80
44047;DHT22;29713;-33.888;151.150;2023-06-26T06:07:07;17.40;84.90
44047;DHT22;29713;-33.888;151.150;2023-06-26T06:09:34;17.40;85.50
44047;DHT22;29713;-33.888;151.150;2023-06-26T06:12:01;17.40;85.80
44047;DHT22;29713;-33.888;151.150;2023-06-26T06:14:30;17.30;84.50
44047;DHT22;29713;-33.888;151.150;2023-06-26T06:16:57;17.30;85.20
44047;DHT22;29713;-33.888;151.150;2023-06-26T06:19:25;17.30;86.60
44047;DHT22;29713;-33.888;151.150;2023-06-26T06:21:52;17.20;84.80
44047;DHT22;29713;-33.888;151.150;2023-06-26T06:24:20;17.20;84.70
44047;DHT22;29713;-33.888;151.150;2023-06-26T06:26:48;17.10;83.90
44047;DHT22;29713;-33.888;151.150;2023-06-26T06:29:15;17.10;84.10
44047;DHT22;29713;-33.888;151.150;2023-06-26T06:31:42;17.00;84.70
44047;DHT22;29713;-33.888;151.150;2023-06-26T06:34:10;17.00;85.00
44047;DHT22;29713;-33.888;151.150;2023-06-26T06:36:38;17.00;85.20
44047;DHT22;29713;-33.888;151.150;2023-06-26T06:39:05;17.00;86.60
44047;DHT22;29713;-33.888;151.150;2023-06-26T06:41:33;16.90;85.60
44047;DHT22;29713;-33.888;151.150;2023-06-26T06:44:00;16.90;85.60
44047;DHT22;29713;-33.888;151.150;2023-06-26T06:46:27;16.80;85.00
44047;DHT22;29713;-33.888;151.150;2023-06-26T06:48:56;16.80;85.80
44047;DHT22;29713;-33.888;151.150;2023-06-26T06:51:23;16.80;85.90
44047;DHT22;29713;-33.888;151.150;2023-06-26T06:53:50;16.80;85.90
44047;DHT22;29713;-33.888;151.150;2023-06-26T06:56:18;16.80;86.30
44047;DHT22;29713;-33.888;151.150;2023-06-26T06:58:45;16.80;86.70
44047;DHT22;29713;-33.888;151.150;2023-06-26T07:01:13;16.80;88.00
44047;DHT22;29713;-33.888;151.150;2023-06-26T07:03:41;16.70;88.10
44047;DHT22;29713;-33.888;151.150;2023-06-26T07:06:08;16.70;87.90
44047;DHT22;29713;-33.888;151.150;2023-06-26T07:08:35;16.60;88.00
44047;DHT22;29713;-33.888;151.150;2023-06-26T07:11:03;16.60;88.40
44047;DHT22;29713;-33.888;151.150;2023-06-26T07:13:30;16.60;88.10
44047;DHT22;29713;-33.888;151.150;2023-06-26T07:15:57;16.50;88.80
44047;DHT22;29713;-33.888;151.150;2023-06-26T07:18:25;16.50;88.30
44047;DHT22;29713;-33.888;151.150;2023-06-26T07:20:52;16.50;88.50
44047;DHT22;29713;-33.888;151.150;2023-06-26T07:23:19;16.50;88.60
44047;DHT22;29713;-33.888;151.150;2023-06-26T07:25:49;16.50;87.90
44047;DHT22;29713;-33.888;151.150;2023-06-26T07:28:17;16.50;88.90
44047;DHT22;29713;-33.888;151.150;2023-06-26T07:30:44;16.40;86.50
44047;DHT22;29713;-33.888;151.150;2023-06-26T07:33:11;16.40;86.80
44047;DHT22;29713;-33.888;151.150;2023-06-26T07:35:39;16.40;87.50
44047;DHT22;29713;-33.888;151.150;2023-06-26T07:38:07;16.30;88.00
44047;DHT22;29713;-33.888;151.150;2023-06-26T07:40:34;16.30;87.20
44047;DHT22;29713;-33.888;151.150;2023-06-26T07:43:01;16.30;87.30
44047;DHT22;29713;-33.888;151.150;2023-06-26T07:45:28;16.30;87.20
44047;DHT22;29713;-33.888;151.150;2023-06-26T07:47:56;16.20;87.40
44047;DHT22;29713;-33.888;151.150;2023-06-26T07:50:23;16.20;87.50
44047;DHT22;29713;-33.888;151.150;2023-06-26T07:52:51;16.20;87.80
44047;DHT22;29713;-33.888;151.150;2023-06-26T07:55:19;16.20;87.70
44047;DHT22;29713;-33.888;151.150;2023-06-26T07:57:47;16.20;87.60
44047;DHT22;29713;-33.888;151.150;2023-06-26T08:00:14;16.10;88.90
44047;DHT22;29713;-33.888;151.150;2023-06-26T08:02:42;16.10;88.70
44047;DHT22;29713;-33.888;151.150;2023-06-26T08:05:09;16.10;89.20
44047;DHT22;29713;-33.888;151.150;2023-06-26T08:07:36;16.10;89.20
44047;DHT22;29713;-33.888;151.150;2023-06-26T08:10:04;16.10;89.50
44047;DHT22;29713;-33.888;151.150;2023-06-26T08:12:34;16.10;89.10
44047;DHT22;29713;-33.888;151.150;2023-06-26T08:15:03;16.10;89.40
44047;DHT22;29713;-33.888;151.150;2023-06-26T08:17:36;16.10;90.00
44047;DHT22;29713;-33.888;151.150;2023-06-26T08:20:05;16.10;89.60
44047;DHT22;29713;-33.888;151.150;2023-06-26T08:22:34;16.00;90.00
44047;DHT22;29713;-33.888;151.150;2023-06-26T08:25:03;16.00;90.10
44047;DHT22;29713;-33.888;151.150;2023-06-26T08:27:32;16.00;90.30
44047;DHT22;29713;-33.888;151.150;2023-06-26T08:30:00;16.00;90.40
44047;DHT22;29713;-33.888;151.150;2023-06-26T08:32:27;15.90;90.70
44047;DHT22;29713;-33.888;151.150;2023-06-26T08:34:54;15.90;90.70
44047;DHT22;29713;-33.888;151.150;2023-06-26T08:37:22;15.90;90.60
44047;DHT22;29713;-33.888;151.150;2023-06-26T08:39:49;15.90;91.10
44047;DHT22;29713;-33.888;151.150;2023-06-26T08:42:17;15.90;90.90
44047;DHT22;29713;-33.888;151.150;2023-06-26T08:44:44;15.90;90.70
44047;DHT22;29713;-33.888;151.150;2023-06-26T08:47:12;15.90;90.90
44047;DHT22;29713;-33.888;151.150;2023-06-26T08:50:18;15.90;90.90
44047;DHT22;29713;-33.888;151.150;2023-06-26T08:52:56;15.90;91.10
44047;DHT22;29713;-33.888;151.150;2023-06-26T08:55:28;15.80;91.10
44047;DHT22;29713;-33.888;151.150;2023-06-26T08:57:55;15.80;91.10
44047;DHT22;29713;-33.888;151.150;2023-06-26T09:00:23;15.70;91.00
44047;DHT22;29713;-33.888;151.150;2023-06-26T09:02:50;15.70;91.30
44047;DHT22;29713;-33.888;151.150;2023-06-26T09:05:18;15.60;91.30
44047;DHT22;29713;-33.888;151.150;2023-06-26T09:07:45;15.60;91.10
44047;DHT22;29713;-33.888;151.150;2023-06-26T09:10:13;15.60;91.20
44047;DHT22;29713;-33.888;151.150;2023-06-26T09:12:40;15.60;91.70
44047;DHT22;29713;-33.888;151.150;2023-06-26T09:15:08;15.50;91.80
44047;DHT22;29713;-33.888;151.150;2023-06-26T09:17:39;15.50;92.30
44047;DHT22;29713;-33.888;151.150;2023-06-26T09:20:10;15.50;92.20
44047;DHT22;29713;-33.888;151.150;2023-06-26T09:22:40;15.50;92.10
44047;DHT22;29713;-33.888;151.150;2023-06-26T09:25:08;15.40;91.90
44047;DHT22;29713;-33.888;151.150;2023-06-26T09:27:37;15.40;92.30
44047;DHT22;29713;-33.888;151.150;2023-06-26T09:30:05;15.40;92.40
44047;DHT22;29713;-33.888;151.150;2023-06-26T09:32:36;15.40;92.40
44047;DHT22;29713;-33.888;151.150;2023-06-26T09:35:04;15.30;92.50
44047;DHT22;29713;-33.888;151.150;2023-06-26T09:37:32;15.30;92.50
44047;DHT22;29713;-33.888;151.150;2023-06-26T09:39:59;15.30;92.80
44047;DHT22;29713;-33.888;151.150;2023-06-26T09:42:27;15.20;93.20
44047;DHT22;29713;-33.888;151.150;2023-06-26T09:44:54;15.20;93.50
44047;DHT22;29713;-33.888;151.150;2023-06-26T09:47:22;15.10;93.90
44047;DHT22;29713;-33.888;151.150;2023-06-26T09:49:49;15.10;94.10
44047;DHT22;29713;-33.888;151.150;2023-06-26T09:52:19;15.20;94.20
44047;DHT22;29713;-33.888;151.150;2023-06-26T09:54:46;15.20;94.60
44047;DHT22;29713;-33.888;151.150;2023-06-26T09:57:16;15.20;94.90
44047;DHT22;29713;-33.888;151.150;2023-06-26T09:59:44;15.20;95.30
44047;DHT22;29713;-33.888;151.150;2023-06-26T10:02:12;15.10;95.70
44047;DHT22;29713;-33.888;151.150;2023-06-26T10:04:40;15.20;96.00
44047;DHT22;29713;-33.888;151.150;2023-06-26T10:07:11;15.20;96.30
44047;DHT22;29713;-33.888;151.150;2023-06-26T10:09:42;15.20;96.60
44047;DHT22;29713;-33.888;151.150;2023-06-26T10:12:19;15.20;96.90
44047;DHT22;29713;-33.888;151.150;2023-06-26T10:14:47;15.20;97.10
44047;DHT22;29713;-33.888;151.150;2023-06-26T10:17:19;15.20;97.20
44047;DHT22;29713;-33.888;151.150;2023-06-26T10:19:48;15.20;97.50
44047;DHT22;29713;-33.888;151.150;2023-06-26T10:22:18;15.20;97.80
44047;DHT22;29713;-33.888;151.150;2023-06-26T10:24:48;15.20;97.70
44047;DHT22;29713;-33.888;151.150;2023-06-26T10:27:25;15.20;98.00
44047;DHT22;29713;-33.888;151.150;2023-06-26T10:29:55;15.20;98.20
44047;DHT22;29713;-33.888;151.150;2023-06-26T10:32:25;15.20;98.80
44047;DHT22;29713;-33.888;151.150;2023-06-26T10:34:54;15.10;98.80
44047;DHT22;29713;-33.888;151.150;2023-06-26T10:37:40;15.10;99.60
44047;DHT22;29713;-33.888;151.150;2023-06-26T10:40:08;15.10;99.30
44047;DHT22;29713;-33.888;151.150;2023-06-26T10:42:37;15.10;99.90
44047;DHT22;29713;-33.888;151.150;2023-06-26T10:45:21;15.20;99.90
44047;DHT22;29713;-33.888;151.150;2023-06-26T10:47:51;15.10;99.90
44047;DHT22;29713;-33.888;151.150;2023-06-26T10:56:00;15.10;99.90
44047;DHT22;29713;-33.888;151.150;2023-06-26T10:58:39;15.00;99.90
44047;DHT22;29713;-33.888;151.150;2023-06-26T11:01:23;15.00;99.90
44047;DHT22;29713;-33.888;151.150;2023-06-26T11:04:01;14.90;99.90
44047;DHT22;29713;-33.888;151.150;2023-06-26T11:06:29;14.80;99.90
44047;DHT22;29713;-33.888;151.150;2023-06-26T11:09:07;14.70;99.90
44047;DHT22;29713;-33.888;151.150;2023-06-26T11:14:22;14.70;99.90
44047;DHT22;29713;-33.888;151.150;2023-06-26T11:16:50;14.60;99.90
44047;DHT22;29713;-33.888;151.150;2023-06-26T11:19:19;14.60;99.90
44047;DHT22;29713;-33.888;151.150;2023-06-26T11:21:47;14.60;99.90
44047;DHT22;29713;-33.888;151.150;2023-06-26T11:24:16;14.50;99.90
44047;DHT22;29713;-33.888;151.150;2023-06-26T11:26:45;14.50;99.90
44047;DHT22;29713;-33.888;151.150;2023-06-26T11:29:14;14.50;99.90
44047;DHT22;29713;-33.888;151.150;2023-06-26T11:31:42;14.40;99.90
44047;DHT22;29713;-33.888;151.150;2023-06-26T11:34:11;14.40;99.90
44047;DHT22;29713;-33.888;151.150;2023-06-26T11:36:39;14.40;99.90
44047;DHT22;29713;-33.888;151.150;2023-06-26T11:39:08;14.40;99.90
44047;DHT22;29713;-33.888;151.150;2023-06-26T11:41:39;14.40;99.90
44047;DHT22;29713;-33.888;151.150;2023-06-26T11:44:08;14.40;99.90
44047;DHT22;29713;-33.888;151.150;2023-06-26T11:46:37;14.40;99.90
44047;DHT22;29713;-33.888;151.150;2023-06-26T11:49:05;14.30;99.90
44047;DHT22;29713;-33.888;151.150;2023-06-26T11:51:33;14.30;99.90
44047;DHT22;29713;-33.888;151.150;2023-06-26T11:54:03;14.30;99.90
44047;DHT22;29713;-33.888;151.150;2023-06-26T11:56:33;14.40;99.90
44047;DHT22;29713;-33.888;151.150;2023-06-26T11:59:01;14.40;99.90
44047;DHT22;29713;-33.888;151.150;2023-06-26T12:01:39;14.40;99.90
44047;DHT22;29713;-33.888;151.150;2023-06-26T12:04:09;14.40;99.90
44047;DHT22;29713;-33.888;151.150;2023-06-26T12:06:41;14.30;99.90
44047;DHT22;29713;-33.888;151.150;2023-06-26T12:09:11;14.30;99.90
44047;DHT22;29713;-33.888;151.150;2023-06-26T12:11:41;14.20;99.90
44047;DHT22;29713;-33.888;151.150;2023-06-26T12:14:09;14.20;99.90
44047;DHT22;29713;-33.888;151.150;2023-06-26T12:16:37;14.20;99.90
44047;DHT22;29713;-33.888;151.150;2023-06-26T12:19:07;14.20;99.90
44047;DHT22;29713;-33.888;151.150;2023-06-26T12:24:06;14.10;99.90
44047;DHT22;29713;-33.888;151.150;2023-06-26T12:26:34;14.10;99.90
44047;DHT22;29713;-33.888;151.150;2023-06-26T12:29:09;14.10;99.90
44047;DHT22;29713;-33.888;151.150;2023-06-26T12:31:44;14.10;99.90
44047;DHT22;29713;-33.888;151.150;2023-06-26T12:34:13;14.00;99.90
44047;DHT22;29713;-33.888;151.150;2023-06-26T12:36:45;14.10;99.90
44047;DHT22;29713;-33.888;151.150;2023-06-26T12:39:15;14.10;99.90
44047;DHT22;29713;-33.888;151.150;2023-06-26T12:41:54;14.10;99.90
44047;DHT22;29713;-33.888;151.150;2023-06-26T12:44:26;14.10;99.90
44047;DHT22;29713;-33.888;151.150;2023-06-26T12:46:59;14.10;99.90
44047;DHT22;29713;-33.888;151.150;2023-06-26T12:49:37;14.10;99.90
44047;DHT22;29713;-33.888;151.150;2023-06-26T12:52:06;14.10;99.90
44047;DHT22;29713;-33.888;151.150;2023-06-26T12:54:35;14.10;99.90
44047;DHT22;29713;-33.888;151.150;2023-06-26T12:57:02;14.10;99.90
44047;DHT22;29713;-33.888;151.150;2023-06-26T12:59:34;14.20;99.90
44047;DHT22;29713;-33.888;151.150;2023-06-26T13:02:01;14.20;99.90
44047;DHT22;29713;-33.888;151.150;2023-06-26T13:04:29;14.30;99.90
44047;DHT22;29713;-33.888;151.150;2023-06-26T13:06:57;14.30;99.90
44047;DHT22;29713;-33.888;151.150;2023-06-26T13:09:25;14.30;99.90
44047;DHT22;29713;-33.888;151.150;2023-06-26T13:11:53;14.20;99.90
44047;DHT22;29713;-33.888;151.150;2023-06-26T13:14:21;14.20;99.90
44047;DHT22;29713;-33.888;151.150;2023-06-26T13:16:49;14.20;99.90
44047;DHT22;29713;-33.888;151.150;2023-06-26T13:19:16;14.10;99.90
44047;DHT22;29713;-33.888;151.150;2023-06-26T13:21:44;14.10;99.90
44047;DHT22;29713;-33.888;151.150;2023-06-26T13:24:11;14.00;99.90
44047;DHT22;29713;-33.888;151.150;2023-06-26T13:26:39;14.00;99.90
44047;DHT22;29713;-33.888;151.150;2023-06-26T13:29:07;13.90;99.90
44047;DHT22;29713;-33.888;151.150;2023-06-26T13:31:34;13.90;99.90
44047;DHT22;29713;-33.888;151.150;2023-06-26T13:34:03;13.90;99.90
44047;DHT22;29713;-33.888;151.150;2023-06-26T13:36:31;13.80;99.90
44047;DHT22;29713;-33.888;151.150;2023-06-26T13:39:02;13.80;99.90
44047;DHT22;29713;-33.888;151.150;2023-06-26T13:41:30;13.80;99.90
44047;DHT22;29713;-33.888;151.150;2023-06-26T13:43:57;13.80;99.90
44047;DHT22;29713;-33.888;151.150;2023-06-26T13:46:24;13.80;99.90
44047;DHT22;29713;-33.888;151.150;2023-06-26T13:48:54;13.80;99.90
44047;DHT22;29713;-33.888;151.150;2023-06-26T13:51:21;13.90;99.90
44047;DHT22;29713;-33.888;151.150;2023-06-26T13:53:48;13.90;99.90
44047;DHT22;29713;-33.888;151.150;2023-06-26T13:56:16;13.80;99.90
44047;DHT22;29713;-33.888;151.150;2023-06-26T13:58:43;13.80;99.90
44047;DHT22;29713;-33.888;151.150;2023-06-26T14:01:11;13.70;99.90
44047;DHT22;29713;-33.888;151.150;2023-06-26T14:03:40;13.70;99.90
44047;DHT22;29713;-33.888;151.150;2023-06-26T14:06:07;13.70;99.90
44047;DHT22;29713;-33.888;151.150;2023-06-26T14:08:34;13.70;99.90
44047;DHT22;29713;-33.888;151.150;2023-06-26T14:11:02;13.70;99.90
44047;DHT22;29713;-33.888;151.150;2023-06-26T14:13:32;13.70;99.90
44047;DHT22;29713;-33.888;151.150;2023-06-26T14:15:59;13.70;99.90
44047;DHT22;29713;-33.888;151.150;2023-06-26T14:18:27;13.70;99.90
44047;DHT22;29713;-33.888;151.150;2023-06-26T14:20:54;13.70;99.90
44047;DHT22;29713;-33.888;151.150;2023-06-26T14:23:21;13.50;99.90
44047;DHT22;29713;-33.888;151.150;2023-06-26T14:25:49;13.50;99.90
44047;DHT22;29713;-33.888;151.150;2023-06-26T14:28:16;13.40;99.90
44047;DHT22;29713;-33.888;151.150;2023-06-26T14:30:43;13.40;99.90
44047;DHT22;29713;-33.888;151.150;2023-06-26T14:33:11;13.40;99.90
44047;DHT22;29713;-33.888;151.150;2023-06-26T14:35:38;13.50;99.90
44047;DHT22;29713;-33.888;151.150;2023-06-26T14:38:05;13.50;99.90
44047;DHT22;29713;-33.888;151.150;2023-06-26T14:40:33;13.60;99.90
44047;DHT22;29713;-33.888;151.150;2023-06-26T14:43:00;13.60;99.90
44047;DHT22;29713;-33.888;151.150;2023-06-26T14:45:27;13.70;99.90
44047;DHT22;29713;-33.888;151.150;2023-06-26T14:47:55;13.70;99.90
44047;DHT22;29713;-33.888;151.150;2023-06-26T14:50:22;13.70;99.90
44047;DHT22;29713;-33.888;151.150;2023-06-26T14:52:49;13.80;99.90
44047;DHT22;29713;-33.888;151.150;2023-06-26T14:55:17;13.80;99.90
44047;DHT22;29713;-33.888;151.150;2023-06-26T14:57:44;13.80;99.90
44047;DHT22;29713;-33.888;151.150;2023-06-26T15:00:12;13.70;99.90
44047;DHT22;29713;-33.888;151.150;2023-06-26T15:02:39;13.70;99.90
44047;DHT22;29713;-33.888;151.150;2023-06-26T15:05:08;13.60;99.90
44047;DHT22;29713;-33.888;151.150;2023-06-26T15:07:36;13.60;99.90
44047;DHT22;29713;-33.888;151.150;2023-06-26T15:10:03;13.60;99.90
44047;DHT22;29713;-33.888;151.150;2023-06-26T15:12:32;13.60;99.90